createdAt,value
2022-10-19T00:01:15.990Z,7.30
2022-10-19T00:06:19.777Z,5.93
2022-10-19T00:08:48.074Z,5.40
2022-10-19T00:11:16.191Z,5.07
2022-10-19T00:13:44.269Z,5.60
2022-10-19T00:16:14.467Z,4.97
2022-10-19T00:18:44.977Z,4.30
2022-10-19T00:21:16.777Z,4.20
2022-10-19T00:23:45.218Z,4.30
2022-10-19T00:26:13.919Z,4.10
2022-10-19T00:28:42.264Z,3.33
2022-10-19T00:31:12.237Z,3.30
2022-10-19T00:33:40.716Z,3.80
2022-10-19T00:36:18.273Z,3.23
2022-10-19T00:38:46.665Z,3.00
2022-10-19T00:41:14.706Z,3.43
2022-10-19T00:43:54.513Z,3.23
2022-10-19T00:46:22.887Z,3.07
2022-10-19T00:48:53.850Z,3.33
2022-10-19T00:51:24.968Z,2.87
2022-10-19T00:53:53.330Z,2.93
2022-10-19T00:56:21.551Z,3.43
2022-10-19T00:58:49.641Z,3.60
2022-10-19T01:01:20.234Z,3.33
2022-10-19T01:03:49.733Z,3.67
2022-10-19T01:06:19.763Z,3.90
2022-10-19T01:08:49.153Z,3.40
2022-10-19T01:11:29.543Z,3.83
2022-10-19T01:14:10.377Z,3.20
2022-10-19T01:16:48.241Z,3.20
2022-10-19T01:19:41.026Z,3.60
2022-10-19T01:22:18.044Z,3.53
2022-10-19T01:24:58.880Z,3.30
2022-10-19T01:27:38.938Z,3.37
2022-10-19T01:30:14.415Z,3.67
2022-10-19T01:32:59.876Z,4.37
2022-10-19T01:35:33.681Z,3.60
2022-10-19T01:38:12.370Z,3.73
2022-10-19T01:40:45.984Z,4.60
2022-10-19T01:43:25.844Z,4.70
2022-10-19T01:45:59.532Z,4.63
2022-10-19T01:48:33.371Z,5.50
2022-10-19T01:51:04.942Z,4.53
2022-10-19T01:53:40.502Z,5.53
2022-10-19T01:56:09.375Z,4.60
2022-10-19T01:58:40.043Z,5.93
2022-10-19T02:03:45.217Z,4.80
2022-10-19T02:06:15.027Z,4.63
2022-10-19T02:08:47.687Z,4.57
2022-10-19T02:11:16.499Z,4.87
2022-10-19T02:13:47.219Z,5.10
2022-10-19T02:16:20.533Z,4.83
2022-10-19T02:18:51.645Z,5.00
2022-10-19T02:21:20.504Z,4.97
2022-10-19T02:23:50.581Z,4.77
2022-10-19T02:26:22.195Z,5.90
2022-10-19T02:28:51.015Z,7.00
2022-10-19T02:31:20.535Z,6.73
2022-10-19T02:33:48.721Z,6.30
2022-10-19T02:36:16.871Z,7.67
2022-10-19T02:38:44.985Z,7.47
2022-10-19T02:41:17.719Z,8.03
2022-10-19T02:43:50.562Z,7.77
2022-10-19T02:46:26.768Z,7.10
2022-10-19T02:48:56.371Z,6.63
2022-10-19T02:51:32.039Z,7.20
2022-10-19T02:54:04.086Z,8.47
2022-10-19T02:56:34.157Z,7.90
2022-10-19T02:59:02.364Z,8.23
2022-10-19T03:01:31.762Z,8.57
2022-10-19T03:03:59.905Z,7.97
2022-10-19T03:06:27.991Z,8.60
2022-10-19T03:08:56.049Z,8.50
2022-10-19T03:11:24.109Z,8.20
2022-10-19T03:13:52.093Z,8.00
2022-10-19T03:16:20.552Z,9.10
2022-10-19T03:18:50.971Z,8.30
2022-10-19T03:21:19.628Z,6.87
2022-10-19T03:23:48.012Z,5.50
2022-10-19T03:26:18.305Z,6.30
2022-10-19T03:28:47.466Z,5.97
2022-10-19T03:31:15.504Z,5.77
2022-10-19T03:33:43.489Z,6.30
2022-10-19T03:36:18.071Z,6.10
2022-10-19T03:38:46.356Z,7.37
2022-10-19T03:41:14.711Z,7.80
2022-10-19T03:43:42.855Z,6.90
2022-10-19T03:46:11.033Z,6.70
2022-10-19T03:48:39.096Z,6.93
2022-10-19T03:51:09.321Z,7.50
2022-10-19T03:53:38.994Z,7.07
2022-10-19T03:56:09.445Z,6.37
2022-10-19T03:58:39.659Z,7.50
2022-10-19T04:01:10.659Z,7.47
2022-10-19T04:03:39.324Z,8.47
2022-10-19T04:06:10.859Z,7.77
2022-10-19T04:08:40.615Z,7.57
2022-10-19T04:11:12.357Z,12.47
2022-10-19T04:13:41.093Z,8.93
2022-10-19T04:16:11.320Z,7.53
2022-10-19T04:18:39.338Z,8.17
2022-10-19T04:21:08.145Z,8.40
2022-10-19T04:23:39.071Z,9.90
2022-10-19T04:26:09.280Z,8.77
2022-10-19T04:28:37.289Z,10.60
2022-10-19T04:31:06.585Z,9.03
2022-10-19T04:33:35.134Z,9.43
2022-10-19T04:36:05.060Z,8.67
2022-10-19T04:38:33.812Z,8.43
2022-10-19T04:41:03.784Z,8.57
2022-10-19T04:43:33.470Z,8.90
2022-10-19T04:46:05.280Z,9.23
2022-10-19T04:48:34.538Z,8.90
2022-10-19T04:51:02.789Z,10.60
2022-10-19T04:53:31.494Z,9.87
2022-10-19T04:55:59.513Z,10.57
2022-10-19T04:58:28.369Z,11.27
2022-10-19T05:00:58.427Z,11.20
2022-10-19T05:03:26.679Z,9.70
2022-10-19T05:05:54.860Z,8.60
2022-10-19T05:08:22.943Z,8.67
2022-10-19T05:10:51.043Z,8.83
2022-10-19T05:13:19.086Z,7.60
2022-10-19T05:15:58.159Z,8.20
2022-10-19T05:18:26.273Z,7.40
2022-10-19T05:21:02.343Z,8.40
2022-10-19T05:23:30.426Z,8.10
2022-10-19T05:26:03.454Z,7.40
2022-10-19T05:28:32.062Z,7.23
2022-10-19T05:31:09.520Z,8.57
2022-10-19T05:33:38.342Z,7.67
2022-10-19T05:36:17.875Z,8.03
2022-10-19T05:38:47.523Z,7.23
2022-10-19T05:41:16.446Z,5.90
2022-10-19T05:43:45.395Z,6.50
2022-10-19T05:46:17.633Z,6.40
2022-10-19T05:48:46.766Z,5.70
2022-10-19T05:51:17.425Z,6.40
2022-10-19T05:53:46.332Z,5.87
2022-10-19T05:56:16.656Z,5.97
2022-10-19T05:58:45.195Z,5.60
2022-10-19T06:01:15.434Z,4.83
2022-10-19T06:03:43.489Z,4.60
2022-10-19T06:06:11.766Z,4.73
2022-10-19T06:08:40.531Z,5.10
2022-10-19T06:11:11.384Z,4.93
2022-10-19T06:13:40.729Z,5.67
2022-10-19T06:16:11.508Z,6.00
2022-10-19T06:18:41.959Z,4.80
2022-10-19T06:21:13.040Z,5.17
2022-10-19T06:26:12.694Z,5.10
2022-10-19T06:28:42.347Z,5.17
2022-10-19T06:31:10.937Z,4.40
2022-10-19T06:33:40.842Z,5.03
2022-10-19T06:36:09.580Z,4.50
2022-10-19T06:38:37.684Z,4.67
2022-10-19T06:41:06.352Z,4.13
2022-10-19T06:43:34.599Z,3.83
2022-10-19T06:46:06.393Z,3.87
2022-10-19T06:48:34.766Z,4.73
2022-10-19T06:51:06.756Z,4.00
2022-10-19T06:53:35.154Z,3.90
2022-10-19T06:56:05.003Z,3.00
2022-10-19T06:58:36.496Z,3.57
2022-10-19T07:01:07.715Z,3.47
2022-10-19T07:03:36.454Z,3.50
2022-10-19T07:06:08.768Z,3.87
2022-10-19T07:08:37.946Z,3.67
2022-10-19T07:11:08.708Z,3.53
2022-10-19T07:13:37.202Z,4.03
2022-10-19T07:16:07.988Z,3.20
2022-10-19T07:18:36.853Z,3.60
2022-10-19T07:21:08.278Z,3.50
2022-10-19T07:23:38.076Z,2.87
2022-10-19T07:26:08.063Z,3.70
2022-10-19T07:28:36.316Z,3.70
2022-10-19T07:31:09.655Z,4.70
2022-10-19T07:33:38.148Z,3.30
2022-10-19T07:36:10.102Z,3.50
2022-10-19T07:38:38.601Z,4.37
2022-10-19T07:41:09.222Z,3.53
2022-10-19T07:43:37.320Z,3.90
2022-10-19T07:46:07.997Z,4.50
2022-10-19T07:48:38.086Z,3.90
2022-10-19T07:51:12.065Z,3.73
2022-10-19T07:53:42.549Z,3.23
2022-10-19T07:56:18.152Z,3.90
2022-10-19T07:58:46.880Z,3.40
2022-10-19T08:01:19.978Z,3.80
2022-10-19T08:04:43.298Z,3.90
2022-10-19T08:06:43.476Z,4.67
2022-10-19T08:09:27.674Z,3.17
2022-10-19T08:12:05.276Z,3.57
2022-10-19T08:14:33.880Z,3.70
2022-10-19T08:17:03.167Z,4.07
2022-10-19T08:19:43.487Z,4.13
2022-10-19T08:22:19.432Z,4.00
2022-10-19T08:24:47.899Z,4.90
2022-10-19T08:27:21.593Z,4.53
2022-10-19T08:29:53.318Z,4.23
2022-10-19T08:32:22.238Z,3.70
2022-10-19T08:34:57.407Z,3.70
2022-10-19T08:37:44.251Z,3.57
2022-10-19T08:40:19.945Z,3.70
2022-10-19T08:42:56.187Z,3.50
2022-10-19T08:45:43.159Z,2.60
2022-10-19T08:48:27.039Z,3.13
2022-10-19T08:50:57.184Z,3.30
2022-10-19T08:53:37.402Z,3.30
2022-10-19T08:56:45.927Z,4.10
2022-10-19T08:59:21.748Z,4.33
2022-10-19T09:01:55.794Z,4.50
2022-10-19T09:04:27.754Z,4.30
2022-10-19T09:07:19.210Z,4.07
2022-10-19T09:09:52.669Z,4.37
2022-10-19T09:12:32.644Z,3.97
2022-10-19T09:15:33.069Z,4.40
2022-10-19T09:18:32.649Z,3.97
2022-10-19T09:21:28.123Z,4.23
2022-10-19T09:24:09.351Z,4.10
2022-10-19T09:26:51.139Z,3.70
2022-10-19T09:29:28.131Z,4.63
2022-10-19T09:32:05.712Z,4.53
2022-10-19T09:34:38.010Z,5.10
2022-10-19T09:37:06.720Z,4.27
2022-10-19T09:39:35.514Z,5.20
2022-10-19T09:42:13.368Z,5.03
2022-10-19T09:44:41.865Z,5.73
2022-10-19T09:47:29.958Z,5.27
2022-10-19T09:50:17.583Z,5.40
2022-10-19T09:52:47.683Z,5.10
2022-10-19T09:55:33.034Z,5.80
2022-10-19T09:58:06.296Z,5.10
2022-10-19T10:00:37.687Z,4.67
2022-10-19T10:03:07.895Z,4.30
2022-10-19T10:05:39.846Z,4.90
2022-10-19T10:08:15.725Z,4.73
2022-10-19T10:10:47.555Z,5.40
2022-10-19T10:13:27.722Z,5.77
2022-10-19T10:15:59.089Z,5.60
2022-10-19T10:18:30.232Z,5.90
2022-10-19T10:21:03.830Z,6.27
2022-10-19T10:23:36.722Z,5.90
2022-10-19T10:26:10.465Z,6.13
2022-10-19T10:28:50.706Z,5.97
2022-10-19T10:31:25.192Z,5.73
2022-10-19T10:34:10.884Z,6.10
2022-10-19T10:37:00.080Z,6.40
2022-10-19T10:39:41.538Z,6.77
2022-10-19T10:42:18.632Z,6.23
2022-10-19T10:44:52.140Z,6.30
2022-10-19T10:47:21.676Z,6.80
2022-10-19T10:50:04.745Z,6.47
2022-10-19T10:52:33.787Z,7.77
2022-10-19T10:55:04.742Z,6.67
2022-10-19T10:57:38.066Z,7.20
2022-10-19T11:00:14.486Z,7.57
2022-10-19T11:02:48.408Z,6.60
2022-10-19T11:05:24.588Z,6.73
2022-10-19T11:07:57.274Z,5.77
2022-10-19T11:10:32.453Z,8.07
2022-10-19T11:13:13.727Z,5.80
2022-10-19T11:16:00.144Z,5.80
2022-10-19T11:18:32.776Z,5.97
2022-10-19T11:21:10.843Z,7.10
2022-10-19T11:24:00.961Z,6.83
2022-10-19T11:26:46.856Z,6.60
2022-10-19T11:29:45.708Z,7.03
2022-10-19T11:32:27.171Z,6.67
2022-10-19T11:35:08.149Z,7.40
2022-10-19T11:37:50.118Z,6.90
2022-10-19T11:40:59.660Z,6.67
2022-10-19T11:43:39.773Z,6.60
2022-10-19T11:46:19.053Z,7.60
2022-10-19T11:49:11.095Z,6.30
2022-10-19T11:51:47.572Z,7.27
2022-10-19T11:54:28.120Z,6.93
2022-10-19T11:57:06.351Z,6.97
2022-10-19T12:00:08.232Z,6.10
2022-10-19T12:03:26.106Z,6.87
2022-10-19T12:06:11.450Z,6.43
2022-10-19T12:09:04.624Z,6.87
2022-10-19T12:11:45.296Z,6.73
2022-10-19T12:14:17.660Z,6.50
2022-10-19T12:16:49.751Z,5.60
2022-10-19T12:19:22.472Z,6.10
2022-10-19T12:21:54.647Z,6.67
2022-10-19T12:24:26.451Z,5.50
2022-10-19T12:26:55.975Z,6.60
2022-10-19T12:29:27.188Z,6.37
2022-10-19T12:31:57.075Z,6.10
2022-10-19T12:34:40.354Z,6.10
2022-10-19T12:37:14.429Z,6.37
2022-10-19T12:39:49.966Z,6.23
2022-10-19T12:42:26.502Z,6.03
2022-10-19T12:45:13.866Z,5.60
2022-10-19T12:48:02.753Z,5.47
2022-10-19T12:51:16.099Z,5.27
2022-10-19T12:53:49.458Z,6.77
2022-10-19T12:56:24.262Z,6.50
2022-10-19T12:58:59.781Z,5.80
2022-10-19T13:01:44.237Z,5.50
2022-10-19T13:04:16.780Z,6.17
2022-10-19T13:06:49.496Z,6.13
2022-10-19T13:09:30.711Z,5.10
2022-10-19T13:12:31.576Z,4.97
2022-10-19T13:15:01.739Z,5.30
2022-10-19T13:17:44.166Z,5.57
2022-10-19T13:20:52.133Z,5.67
2022-10-19T13:23:39.846Z,5.03
2022-10-19T13:26:35.890Z,5.77
2022-10-19T13:29:05.107Z,4.53
2022-10-19T13:31:34.654Z,4.50
2022-10-19T13:34:10.941Z,3.97
2022-10-19T13:36:40.586Z,4.37
2022-10-19T13:39:17.038Z,4.33
2022-10-19T13:41:57.414Z,5.20
2022-10-19T13:44:39.598Z,4.67
2022-10-19T13:47:41.478Z,4.70
2022-10-19T13:50:32.227Z,5.27
2022-10-19T13:53:29.559Z,4.73
2022-10-19T13:56:28.245Z,4.90
2022-10-19T13:59:22.356Z,4.70
2022-10-19T14:02:03.794Z,4.90
2022-10-19T14:04:45.093Z,4.60
2022-10-19T14:07:17.680Z,4.70
2022-10-19T14:10:07.119Z,4.50
2022-10-19T14:12:38.003Z,5.10
2022-10-19T14:15:25.368Z,4.40
2022-10-19T14:17:53.771Z,3.20
2022-10-19T14:20:33.230Z,4.73
2022-10-19T14:23:20.007Z,4.67
2022-10-19T14:25:52.608Z,4.53
2022-10-19T14:28:22.710Z,4.20
2022-10-19T14:30:59.416Z,4.10
2022-10-19T14:33:29.431Z,3.77
2022-10-19T14:35:57.883Z,3.80
2022-10-19T14:38:35.149Z,3.57
2022-10-19T14:41:03.946Z,4.00
2022-10-19T14:43:33.532Z,3.97
2022-10-19T14:46:11.986Z,4.10
2022-10-19T14:48:41.432Z,4.00
2022-10-19T14:51:18.155Z,3.90
2022-10-19T14:53:50.390Z,4.30
2022-10-19T14:56:22.469Z,3.87
2022-10-19T14:58:54.602Z,4.00
2022-10-19T15:01:24.230Z,4.47
2022-10-19T15:03:52.961Z,5.07
2022-10-19T15:06:24.667Z,4.10
2022-10-19T15:08:55.392Z,4.57
2022-10-19T15:11:33.907Z,4.87
2022-10-19T15:14:05.263Z,4.67
2022-10-19T15:16:43.967Z,4.70
2022-10-19T15:19:23.404Z,4.10
2022-10-19T15:22:24.283Z,4.53
2022-10-19T15:25:01.715Z,5.63
2022-10-19T15:27:42.223Z,4.67
2022-10-19T15:30:29.032Z,4.93
2022-10-19T15:33:14.280Z,4.83
2022-10-19T15:35:45.070Z,4.80
2022-10-19T15:38:21.858Z,4.80
2022-10-19T15:40:50.559Z,4.67
2022-10-19T15:43:48.345Z,4.87
2022-10-19T15:46:32.288Z,4.60
2022-10-19T15:49:06.562Z,4.30
2022-10-19T15:51:43.858Z,4.77
2022-10-19T15:54:12.823Z,4.60
2022-10-19T15:56:41.932Z,5.43
2022-10-19T15:59:16.048Z,4.53
2022-10-19T16:01:51.365Z,5.10
2022-10-19T16:04:24.633Z,4.20
2022-10-19T16:06:52.994Z,4.80
2022-10-19T16:09:25.095Z,5.27
2022-10-19T16:11:57.424Z,5.40
2022-10-19T16:14:33.037Z,6.00
2022-10-19T16:17:10.649Z,5.87
2022-10-19T16:19:44.048Z,5.37
2022-10-19T16:22:17.975Z,4.90
2022-10-19T16:24:56.948Z,6.50
2022-10-19T16:27:30.895Z,5.00
2022-10-19T16:30:03.676Z,4.27
2022-10-19T16:32:35.143Z,4.80
2022-10-19T16:35:08.981Z,4.17
2022-10-19T16:37:38.576Z,4.87
2022-10-19T16:40:09.082Z,4.77
2022-10-19T16:42:37.634Z,5.23
2022-10-19T16:45:06.412Z,5.17
2022-10-19T16:47:34.565Z,5.50
2022-10-19T16:50:05.926Z,5.70
2022-10-19T16:52:34.482Z,5.80
2022-10-19T16:55:03.254Z,6.00
2022-10-19T16:57:31.387Z,4.50
2022-10-19T17:00:00.173Z,5.77
2022-10-19T17:02:28.695Z,5.63
2022-10-19T17:04:57.631Z,6.63
2022-10-19T17:07:28.074Z,6.10
2022-10-19T17:09:56.471Z,6.37
2022-10-19T17:12:25.571Z,5.37
2022-10-19T17:14:59.494Z,6.30
2022-10-19T17:17:40.172Z,5.57
2022-10-19T17:20:11.267Z,7.30
2022-10-19T17:22:40.705Z,6.37
2022-10-19T17:25:10.025Z,6.57
2022-10-19T17:27:38.288Z,5.63
2022-10-19T17:30:07.234Z,6.80
2022-10-19T17:32:35.645Z,6.43
2022-10-19T17:35:03.912Z,7.77
2022-10-19T17:37:32.697Z,6.63
2022-10-19T17:40:02.373Z,4.27
2022-10-19T17:42:31.219Z,7.40
2022-10-19T17:44:59.282Z,6.10
2022-10-19T17:47:27.303Z,6.47
2022-10-19T17:49:55.390Z,5.67
2022-10-19T17:52:23.365Z,6.57
2022-10-19T17:55:11.296Z,5.83
2022-10-19T17:57:41.350Z,6.20
2022-10-19T18:00:10.129Z,5.90
2022-10-19T18:02:38.886Z,6.80
2022-10-19T18:05:07.679Z,6.20
2022-10-19T18:07:36.688Z,7.20
2022-10-19T18:10:10.489Z,8.30
2022-10-19T18:12:44.292Z,7.37
2022-10-19T18:15:12.677Z,7.60
2022-10-19T18:17:41.777Z,8.10
2022-10-19T18:20:11.941Z,7.23
2022-10-19T18:25:36.099Z,6.33
2022-10-19T18:28:12.007Z,6.70
2022-10-19T18:30:46.113Z,8.30
2022-10-19T18:33:14.778Z,7.33
2022-10-19T18:35:43.045Z,7.00
2022-10-19T18:38:14.558Z,6.77
2022-10-19T18:40:42.916Z,7.10
2022-10-19T18:43:13.446Z,7.10
2022-10-19T18:45:46.947Z,6.97
2022-10-19T18:48:17.171Z,6.73
2022-10-19T18:50:51.505Z,6.70
2022-10-19T18:53:21.330Z,8.10
2022-10-19T18:56:06.188Z,8.00
2022-10-19T18:58:51.443Z,7.73
2022-10-19T19:01:24.399Z,8.40
2022-10-19T19:03:56.658Z,8.80
2022-10-19T19:06:35.096Z,7.47
2022-10-19T19:09:08.092Z,7.13
2022-10-19T19:11:41.377Z,7.27
2022-10-19T19:14:18.570Z,7.43
2022-10-19T19:16:48.385Z,8.30
2022-10-19T19:19:21.187Z,6.23
2022-10-19T19:21:53.666Z,7.43
2022-10-19T19:24:28.397Z,7.27
2022-10-19T19:27:00.776Z,7.90
2022-10-19T19:29:35.159Z,5.20
2022-10-19T19:32:05.843Z,6.30
2022-10-19T19:34:44.639Z,6.77
2022-10-19T19:37:13.897Z,6.80
2022-10-19T19:39:45.876Z,6.80
2022-10-19T19:42:15.016Z,6.50
2022-10-19T19:44:46.010Z,6.70
2022-10-19T19:47:15.551Z,5.50
2022-10-19T19:49:46.637Z,6.13
2022-10-19T19:52:17.873Z,5.63
2022-10-19T19:54:46.225Z,5.87
2022-10-19T19:57:14.482Z,6.27
2022-10-19T19:59:44.176Z,6.30
2022-10-19T20:02:12.718Z,5.37
2022-10-19T20:04:41.912Z,6.13
2022-10-19T20:07:13.143Z,5.40
2022-10-19T20:09:41.184Z,5.73
2022-10-19T20:12:09.788Z,5.87
2022-10-19T20:14:38.082Z,5.40
2022-10-19T20:17:08.009Z,4.03
2022-10-19T20:19:36.136Z,5.57
2022-10-19T20:22:06.314Z,5.93
2022-10-19T20:24:37.699Z,4.27
2022-10-19T20:27:05.971Z,5.03
2022-10-19T20:29:36.825Z,5.40
2022-10-19T20:32:04.883Z,5.20
2022-10-19T20:34:36.715Z,5.90
2022-10-19T20:37:05.045Z,6.00
2022-10-19T20:39:33.241Z,6.10
2022-10-19T20:42:01.465Z,5.87
2022-10-19T20:44:29.887Z,4.90
2022-10-19T20:46:58.229Z,4.90
2022-10-19T20:49:26.297Z,6.00
2022-10-19T20:51:56.002Z,5.50
2022-10-19T20:54:24.184Z,5.73
2022-10-19T20:56:52.684Z,5.77
2022-10-19T20:59:23.227Z,6.10
2022-10-19T21:01:52.989Z,6.10
2022-10-19T21:04:21.492Z,5.60
2022-10-19T21:06:52.451Z,6.40
2022-10-19T21:09:26.017Z,7.03
2022-10-19T21:11:56.696Z,7.10
2022-10-19T21:14:29.571Z,6.27
2022-10-19T21:16:59.557Z,6.93
2022-10-19T21:19:41.239Z,7.60
2022-10-19T21:22:09.999Z,7.07
2022-10-19T21:24:39.786Z,7.50
2022-10-19T21:27:09.564Z,7.03
2022-10-19T21:29:37.956Z,6.90
2022-10-19T21:32:06.338Z,7.23
2022-10-19T21:34:34.910Z,6.97
2022-10-19T21:37:03.063Z,6.53
2022-10-19T21:39:31.594Z,7.23
2022-10-19T21:42:01.654Z,6.97
2022-10-19T21:44:30.189Z,6.37
2022-10-19T21:46:58.578Z,6.40
2022-10-19T21:49:26.680Z,6.57
2022-10-19T21:51:55.919Z,6.63
2022-10-19T21:54:25.706Z,6.23
2022-10-19T21:56:55.954Z,6.37
2022-10-19T21:59:26.147Z,7.27
2022-10-19T22:01:56.494Z,8.07
2022-10-19T22:04:25.741Z,6.43
2022-10-19T22:06:53.956Z,6.70
2022-10-19T22:09:23.123Z,7.47
2022-10-19T22:11:51.615Z,6.83
2022-10-19T22:14:19.782Z,7.43
2022-10-19T22:16:53.725Z,7.90
2022-10-19T22:19:36.095Z,8.13
2022-10-19T22:22:04.081Z,7.70
2022-10-19T22:24:32.199Z,8.27
2022-10-19T22:27:02.241Z,8.10
2022-10-19T22:29:34.489Z,8.50
2022-10-19T22:32:03.983Z,8.30
2022-10-19T22:34:32.383Z,8.03
2022-10-19T22:37:00.614Z,7.20
2022-10-19T22:39:29.962Z,6.87
2022-10-19T22:41:57.951Z,8.43
2022-10-19T22:44:25.880Z,7.80
2022-10-19T22:46:53.897Z,7.53
2022-10-19T22:49:23.477Z,6.77
2022-10-19T22:51:51.677Z,6.10
2022-10-19T22:54:19.644Z,7.27
2022-10-19T22:56:47.613Z,7.07
2022-10-19T22:59:15.765Z,6.93
2022-10-19T23:01:47.005Z,6.80
2022-10-19T23:04:16.868Z,7.27
2022-10-19T23:06:55.503Z,6.67
2022-10-19T23:09:25.810Z,8.00
2022-10-19T23:11:54.150Z,7.90
2022-10-19T23:14:22.199Z,7.50
2022-10-19T23:16:51.208Z,7.57
2022-10-19T23:19:19.204Z,8.37
2022-10-19T23:21:48.507Z,7.93
2022-10-19T23:24:19.416Z,8.00
2022-10-19T23:26:47.452Z,8.27
2022-10-19T23:29:16.490Z,7.57
2022-10-19T23:31:44.733Z,7.30
2022-10-19T23:34:12.730Z,7.07
2022-10-19T23:36:40.716Z,7.57
2022-10-19T23:39:10.141Z,7.30
2022-10-19T23:41:38.143Z,7.77
2022-10-19T23:44:06.450Z,6.83
2022-10-19T23:46:34.526Z,7.00
2022-10-19T23:49:02.523Z,7.00
2022-10-19T23:51:30.713Z,6.70
2022-10-19T23:53:58.694Z,6.77
2022-10-19T23:56:29.822Z,6.07
2022-10-19T23:58:58.247Z,6.50
